sensor_id;sensor_type;location;lat;lon;timestamp;P1;durP1;ratioP1;P2;durP2;ratioP2
43837;SDS011;65998;46.256;7.534;2023-04-09T00:01:47;13.43;;;6.63;;
43837;SDS011;65998;46.256;7.534;2023-04-09T00:04:13;11.82;;;6.00;;
43837;SDS011;65998;46.256;7.534;2023-04-09T00:06:39;13.40;;;6.53;;
43837;SDS011;65998;46.256;7.534;2023-04-09T00:09:05;12.52;;;6.50;;
43837;SDS011;65998;46.256;7.534;2023-04-09T00:11:31;13.40;;;6.70;;
43837;SDS011;65998;46.256;7.534;2023-04-09T00:13:57;12.80;;;6.75;;
43837;SDS011;65998;46.256;7.534;2023-04-09T00:16:23;13.95;;;6.55;;
43837;SDS011;65998;46.256;7.534;2023-04-09T00:18:49;15.43;;;7.32;;
43837;SDS011;65998;46.256;7.534;2023-04-09T00:21:14;14.43;;;7.13;;
43837;SDS011;65998;46.256;7.534;2023-04-09T00:23:41;16.10;;;7.70;;
43837;SDS011;65998;46.256;7.534;2023-04-09T00:26:07;17.77;;;8.10;;
43837;SDS011;65998;46.256;7.534;2023-04-09T00:28:34;17.73;;;8.85;;
43837;SDS011;65998;46.256;7.534;2023-04-09T00:31:00;22.13;;;10.32;;
43837;SDS011;65998;46.256;7.534;2023-04-09T00:33:26;24.95;;;11.27;;
43837;SDS011;65998;46.256;7.534;2023-04-09T00:35:52;25.95;;;11.73;;
43837;SDS011;65998;46.256;7.534;2023-04-09T00:38:18;26.77;;;12.07;;
43837;SDS011;65998;46.256;7.534;2023-04-09T00:40:47;29.37;;;12.37;;
43837;SDS011;65998;46.256;7.534;2023-04-09T00:43:14;31.35;;;14.15;;
43837;SDS011;65998;46.256;7.534;2023-04-09T00:45:39;30.10;;;12.90;;
43837;SDS011;65998;46.256;7.534;2023-04-09T00:48:05;30.05;;;13.98;;
43837;SDS011;65998;46.256;7.534;2023-04-09T00:50:31;31.10;;;13.48;;
43837;SDS011;65998;46.256;7.534;2023-04-09T00:52:57;32.22;;;14.93;;
43837;SDS011;65998;46.256;7.534;2023-04-09T00:55:23;34.97;;;15.27;;
43837;SDS011;65998;46.256;7.534;2023-04-09T00:57:49;32.30;;;14.35;;
43837;SDS011;65998;46.256;7.534;2023-04-09T01:00:15;34.43;;;14.87;;
43837;SDS011;65998;46.256;7.534;2023-04-09T01:02:41;33.10;;;13.95;;
43837;SDS011;65998;46.256;7.534;2023-04-09T01:05:08;34.40;;;15.15;;
43837;SDS011;65998;46.256;7.534;2023-04-09T01:13:10;32.92;;;14.07;;
43837;SDS011;65998;46.256;7.534;2023-04-09T01:15:55;36.75;;;14.73;;
43837;SDS011;65998;46.256;7.534;2023-04-09T01:18:34;35.08;;;14.80;;
43837;SDS011;65998;46.256;7.534;2023-04-09T01:21:22;34.95;;;15.02;;
43837;SDS011;65998;46.256;7.534;2023-04-09T01:29:50;33.03;;;14.73;;
43837;SDS011;65998;46.256;7.534;2023-04-09T01:32:16;31.67;;;15.18;;
43837;SDS011;65998;46.256;7.534;2023-04-09T01:34:45;32.58;;;14.63;;
43837;SDS011;65998;46.256;7.534;2023-04-09T01:37:12;31.20;;;14.07;;
43837;SDS011;65998;46.256;7.534;2023-04-09T01:39:40;31.77;;;14.27;;
43837;SDS011;65998;46.256;7.534;2023-04-09T01:42:06;30.60;;;14.68;;
43837;SDS011;65998;46.256;7.534;2023-04-09T01:44:34;32.28;;;14.10;;
43837;SDS011;65998;46.256;7.534;2023-04-09T01:47:03;29.70;;;13.17;;
43837;SDS011;65998;46.256;7.534;2023-04-09T01:49:32;32.67;;;13.93;;
43837;SDS011;65998;46.256;7.534;2023-04-09T01:51:59;30.48;;;13.48;;
43837;SDS011;65998;46.256;7.534;2023-04-09T01:54:26;27.27;;;12.43;;
43837;SDS011;65998;46.256;7.534;2023-04-09T01:56:52;30.00;;;13.03;;
43837;SDS011;65998;46.256;7.534;2023-04-09T01:59:18;32.13;;;13.15;;
43837;SDS011;65998;46.256;7.534;2023-04-09T02:01:48;30.50;;;13.47;;
43837;SDS011;65998;46.256;7.534;2023-04-09T02:04:22;30.27;;;13.32;;
43837;SDS011;65998;46.256;7.534;2023-04-09T02:07:09;28.52;;;12.65;;
43837;SDS011;65998;46.256;7.534;2023-04-09T02:09:35;29.67;;;12.90;;
43837;SDS011;65998;46.256;7.534;2023-04-09T02:12:05;29.52;;;12.50;;
43837;SDS011;65998;46.256;7.534;2023-04-09T02:14:34;26.42;;;12.25;;
43837;SDS011;65998;46.256;7.534;2023-04-09T02:17:01;29.55;;;12.52;;
43837;SDS011;65998;46.256;7.534;2023-04-09T02:19:38;26.38;;;11.50;;
43837;SDS011;65998;46.256;7.534;2023-04-09T02:22:03;26.75;;;12.20;;
43837;SDS011;65998;46.256;7.534;2023-04-09T02:24:29;24.60;;;11.37;;
43837;SDS011;65998;46.256;7.534;2023-04-09T02:26:55;25.95;;;11.50;;
43837;SDS011;65998;46.256;7.534;2023-04-09T02:29:21;26.37;;;11.07;;
43837;SDS011;65998;46.256;7.534;2023-04-09T02:31:46;26.02;;;11.48;;
43837;SDS011;65998;46.256;7.534;2023-04-09T02:34:12;22.75;;;10.10;;
43837;SDS011;65998;46.256;7.534;2023-04-09T02:36:38;24.73;;;11.30;;
43837;SDS011;65998;46.256;7.534;2023-04-09T02:39:04;24.05;;;11.25;;
43837;SDS011;65998;46.256;7.534;2023-04-09T02:41:30;23.27;;;10.97;;
43837;SDS011;65998;46.256;7.534;2023-04-09T02:43:55;23.58;;;10.90;;
43837;SDS011;65998;46.256;7.534;2023-04-09T02:46:21;24.47;;;10.97;;
43837;SDS011;65998;46.256;7.534;2023-04-09T02:48:47;26.05;;;10.80;;
43837;SDS011;65998;46.256;7.534;2023-04-09T02:51:13;23.43;;;10.27;;
43837;SDS011;65998;46.256;7.534;2023-04-09T02:53:39;24.65;;;11.23;;
43837;SDS011;65998;46.256;7.534;2023-04-09T02:56:04;24.83;;;10.20;;
43837;SDS011;65998;46.256;7.534;2023-04-09T02:58:31;22.98;;;9.63;;
43837;SDS011;65998;46.256;7.534;2023-04-09T03:00:56;20.20;;;9.77;;
43837;SDS011;65998;46.256;7.534;2023-04-09T03:03:22;22.87;;;9.63;;
43837;SDS011;65998;46.256;7.534;2023-04-09T03:05:48;22.25;;;9.82;;
43837;SDS011;65998;46.256;7.534;2023-04-09T03:08:14;23.88;;;10.27;;
43837;SDS011;65998;46.256;7.534;2023-04-09T03:10:40;19.77;;;8.87;;
43837;SDS011;65998;46.256;7.534;2023-04-09T03:13:06;21.55;;;9.98;;
43837;SDS011;65998;46.256;7.534;2023-04-09T03:15:31;18.27;;;9.20;;
43837;SDS011;65998;46.256;7.534;2023-04-09T03:17:57;20.20;;;8.70;;
43837;SDS011;65998;46.256;7.534;2023-04-09T03:20:23;17.57;;;7.43;;
43837;SDS011;65998;46.256;7.534;2023-04-09T03:22:49;19.55;;;8.00;;
43837;SDS011;65998;46.256;7.534;2023-04-09T03:25:14;20.03;;;8.67;;
43837;SDS011;65998;46.256;7.534;2023-04-09T03:27:40;19.27;;;7.85;;
43837;SDS011;65998;46.256;7.534;2023-04-09T03:30:06;18.77;;;7.88;;
43837;SDS011;65998;46.256;7.534;2023-04-09T03:32:32;17.37;;;6.93;;
43837;SDS011;65998;46.256;7.534;2023-04-09T03:34:58;15.23;;;6.82;;
43837;SDS011;65998;46.256;7.534;2023-04-09T03:37:24;15.65;;;6.97;;
43837;SDS011;65998;46.256;7.534;2023-04-09T03:39:50;15.07;;;6.40;;
43837;SDS011;65998;46.256;7.534;2023-04-09T03:42:16;15.82;;;6.43;;
43837;SDS011;65998;46.256;7.534;2023-04-09T03:44:41;15.90;;;6.30;;
43837;SDS011;65998;46.256;7.534;2023-04-09T03:47:07;13.25;;;6.13;;
43837;SDS011;65998;46.256;7.534;2023-04-09T03:49:34;14.97;;;6.00;;
43837;SDS011;65998;46.256;7.534;2023-04-09T03:52:00;13.85;;;6.15;;
43837;SDS011;65998;46.256;7.534;2023-04-09T03:54:29;13.77;;;5.85;;
43837;SDS011;65998;46.256;7.534;2023-04-09T03:56:55;12.70;;;5.43;;
43837;SDS011;65998;46.256;7.534;2023-04-09T03:59:21;12.37;;;5.87;;
43837;SDS011;65998;46.256;7.534;2023-04-09T04:01:47;12.95;;;5.65;;
43837;SDS011;65998;46.256;7.534;2023-04-09T04:04:13;14.00;;;5.93;;
43837;SDS011;65998;46.256;7.534;2023-04-09T04:06:39;13.68;;;5.72;;
43837;SDS011;65998;46.256;7.534;2023-04-09T04:09:05;12.95;;;5.60;;
43837;SDS011;65998;46.256;7.534;2023-04-09T04:11:31;11.57;;;5.22;;
43837;SDS011;65998;46.256;7.534;2023-04-09T04:13:56;10.93;;;5.30;;
43837;SDS011;65998;46.256;7.534;2023-04-09T04:16:22;12.45;;;5.13;;
43837;SDS011;65998;46.256;7.534;2023-04-09T04:18:48;11.00;;;4.73;;
43837;SDS011;65998;46.256;7.534;2023-04-09T04:21:14;9.82;;;4.60;;
43837;SDS011;65998;46.256;7.534;2023-04-09T04:23:41;10.70;;;4.55;;
43837;SDS011;65998;46.256;7.534;2023-04-09T04:26:07;9.93;;;4.65;;
43837;SDS011;65998;46.256;7.534;2023-04-09T04:28:33;10.10;;;4.38;;
43837;SDS011;65998;46.256;7.534;2023-04-09T04:30:59;8.55;;;4.35;;
43837;SDS011;65998;46.256;7.534;2023-04-09T04:33:25;9.30;;;4.22;;
43837;SDS011;65998;46.256;7.534;2023-04-09T04:35:51;8.97;;;3.83;;
43837;SDS011;65998;46.256;7.534;2023-04-09T04:38:16;9.10;;;4.25;;
43837;SDS011;65998;46.256;7.534;2023-04-09T04:40:42;8.80;;;4.30;;
43837;SDS011;65998;46.256;7.534;2023-04-09T04:43:08;10.68;;;4.35;;
43837;SDS011;65998;46.256;7.534;2023-04-09T04:45:34;9.43;;;4.20;;
43837;SDS011;65998;46.256;7.534;2023-04-09T04:47:59;11.50;;;4.33;;
43837;SDS011;65998;46.256;7.534;2023-04-09T04:50:25;10.55;;;4.63;;
43837;SDS011;65998;46.256;7.534;2023-04-09T04:52:51;8.77;;;3.83;;
43837;SDS011;65998;46.256;7.534;2023-04-09T04:55:17;9.27;;;4.10;;
43837;SDS011;65998;46.256;7.534;2023-04-09T04:57:43;8.70;;;4.03;;
43837;SDS011;65998;46.256;7.534;2023-04-09T05:00:09;8.07;;;3.50;;
43837;SDS011;65998;46.256;7.534;2023-04-09T05:02:36;8.52;;;3.72;;
43837;SDS011;65998;46.256;7.534;2023-04-09T05:05:02;8.15;;;3.67;;
43837;SDS011;65998;46.256;7.534;2023-04-09T05:07:28;7.68;;;3.15;;
43837;SDS011;65998;46.256;7.534;2023-04-09T05:09:54;7.78;;;3.45;;
43837;SDS011;65998;46.256;7.534;2023-04-09T05:12:19;6.90;;;3.08;;
43837;SDS011;65998;46.256;7.534;2023-04-09T05:14:46;7.63;;;3.27;;
43837;SDS011;65998;46.256;7.534;2023-04-09T05:17:11;9.00;;;2.80;;
43837;SDS011;65998;46.256;7.534;2023-04-09T05:19:37;9.32;;;2.80;;
43837;SDS011;65998;46.256;7.534;2023-04-09T05:22:03;7.13;;;3.10;;
43837;SDS011;65998;46.256;7.534;2023-04-09T05:24:29;6.80;;;2.95;;
43837;SDS011;65998;46.256;7.534;2023-04-09T05:26:55;7.30;;;2.80;;
43837;SDS011;65998;46.256;7.534;2023-04-09T05:29:21;6.83;;;2.60;;
43837;SDS011;65998;46.256;7.534;2023-04-09T05:31:46;5.63;;;2.55;;
43837;SDS011;65998;46.256;7.534;2023-04-09T05:34:12;7.05;;;2.70;;
43837;SDS011;65998;46.256;7.534;2023-04-09T05:36:38;9.43;;;2.90;;
43837;SDS011;65998;46.256;7.534;2023-04-09T05:39:04;7.32;;;2.78;;
43837;SDS011;65998;46.256;7.534;2023-04-09T05:41:29;6.53;;;2.80;;
43837;SDS011;65998;46.256;7.534;2023-04-09T05:43:55;7.07;;;2.90;;
43837;SDS011;65998;46.256;7.534;2023-04-09T05:46:21;6.20;;;2.53;;
43837;SDS011;65998;46.256;7.534;2023-04-09T05:48:47;6.50;;;2.67;;
43837;SDS011;65998;46.256;7.534;2023-04-09T05:51:12;6.10;;;2.53;;
43837;SDS011;65998;46.256;7.534;2023-04-09T05:53:38;6.20;;;2.58;;
43837;SDS011;65998;46.256;7.534;2023-04-09T05:56:11;9.20;;;2.53;;
43837;SDS011;65998;46.256;7.534;2023-04-09T05:58:38;5.30;;;2.22;;
43837;SDS011;65998;46.256;7.534;2023-04-09T06:01:04;6.30;;;2.58;;
43837;SDS011;65998;46.256;7.534;2023-04-09T06:03:30;5.65;;;2.22;;
43837;SDS011;65998;46.256;7.534;2023-04-09T06:05:55;5.83;;;2.33;;
43837;SDS011;65998;46.256;7.534;2023-04-09T06:08:21;5.07;;;2.00;;
43837;SDS011;65998;46.256;7.534;2023-04-09T06:10:47;6.87;;;2.60;;
43837;SDS011;65998;46.256;7.534;2023-04-09T06:13:13;6.88;;;2.22;;
43837;SDS011;65998;46.256;7.534;2023-04-09T06:15:39;4.97;;;2.27;;
43837;SDS011;65998;46.256;7.534;2023-04-09T06:18:06;8.48;;;2.20;;
43837;SDS011;65998;46.256;7.534;2023-04-09T06:20:31;4.38;;;1.90;;
43837;SDS011;65998;46.256;7.534;2023-04-09T06:22:57;6.40;;;1.90;;
43837;SDS011;65998;46.256;7.534;2023-04-09T06:25:23;4.50;;;1.42;;
43837;SDS011;65998;46.256;7.534;2023-04-09T06:27:49;7.22;;;1.73;;
43837;SDS011;65998;46.256;7.534;2023-04-09T06:30:15;4.50;;;1.80;;
43837;SDS011;65998;46.256;7.534;2023-04-09T06:32:41;4.82;;;1.58;;
43837;SDS011;65998;46.256;7.534;2023-04-09T06:35:07;4.03;;;1.60;;
43837;SDS011;65998;46.256;7.534;2023-04-09T06:37:33;3.85;;;1.42;;
43837;SDS011;65998;46.256;7.534;2023-04-09T06:39:59;4.10;;;1.60;;
43837;SDS011;65998;46.256;7.534;2023-04-09T06:42:25;3.20;;;1.40;;
43837;SDS011;65998;46.256;7.534;2023-04-09T06:44:51;4.10;;;1.60;;
43837;SDS011;65998;46.256;7.534;2023-04-09T06:47:17;4.63;;;1.77;;
43837;SDS011;65998;46.256;7.534;2023-04-09T06:49:43;4.50;;;1.60;;
43837;SDS011;65998;46.256;7.534;2023-04-09T06:52:09;4.00;;;1.70;;
43837;SDS011;65998;46.256;7.534;2023-04-09T06:54:34;3.83;;;1.45;;
43837;SDS011;65998;46.256;7.534;2023-04-09T06:57:00;3.23;;;1.27;;
43837;SDS011;65998;46.256;7.534;2023-04-09T06:59:29;5.90;;;1.60;;
43837;SDS011;65998;46.256;7.534;2023-04-09T07:01:59;3.97;;;1.60;;
43837;SDS011;65998;46.256;7.534;2023-04-09T07:04:40;4.13;;;1.50;;
43837;SDS011;65998;46.256;7.534;2023-04-09T07:07:08;3.40;;;1.60;;
43837;SDS011;65998;46.256;7.534;2023-04-09T07:09:39;4.53;;;1.55;;
43837;SDS011;65998;46.256;7.534;2023-04-09T07:12:07;6.50;;;1.48;;
43837;SDS011;65998;46.256;7.534;2023-04-09T07:14:35;6.00;;;1.30;;
43837;SDS011;65998;46.256;7.534;2023-04-09T07:17:01;6.57;;;1.77;;
43837;SDS011;65998;46.256;7.534;2023-04-09T07:19:27;6.27;;;1.70;;
43837;SDS011;65998;46.256;7.534;2023-04-09T07:21:53;6.15;;;1.55;;
43837;SDS011;65998;46.256;7.534;2023-04-09T07:24:20;3.45;;;1.35;;
43837;SDS011;65998;46.256;7.534;2023-04-09T07:26:47;7.40;;;1.63;;
43837;SDS011;65998;46.256;7.534;2023-04-09T07:29:13;5.87;;;1.63;;
43837;SDS011;65998;46.256;7.534;2023-04-09T07:31:39;6.32;;;1.70;;
43837;SDS011;65998;46.256;7.534;2023-04-09T07:34:05;5.43;;;1.60;;
43837;SDS011;65998;46.256;7.534;2023-04-09T07:36:32;3.60;;;1.30;;
43837;SDS011;65998;46.256;7.534;2023-04-09T07:38:59;6.38;;;1.20;;
43837;SDS011;65998;46.256;7.534;2023-04-09T07:41:25;7.65;;;1.48;;
43837;SDS011;65998;46.256;7.534;2023-04-09T07:43:51;7.13;;;1.17;;
43837;SDS011;65998;46.256;7.534;2023-04-09T07:46:19;4.75;;;1.30;;
43837;SDS011;65998;46.256;7.534;2023-04-09T07:48:45;9.47;;;1.83;;
43837;SDS011;65998;46.256;7.534;2023-04-09T07:51:12;4.25;;;1.20;;
43837;SDS011;65998;46.256;7.534;2023-04-09T07:53:40;6.35;;;1.55;;
43837;SDS011;65998;46.256;7.534;2023-04-09T07:56:06;3.85;;;1.20;;
43837;SDS011;65998;46.256;7.534;2023-04-09T07:58:33;4.40;;;1.23;;
43837;SDS011;65998;46.256;7.534;2023-04-09T08:00:59;5.13;;;1.30;;
43837;SDS011;65998;46.256;7.534;2023-04-09T08:03:34;3.83;;;1.40;;
43837;SDS011;65998;46.256;7.534;2023-04-09T08:06:00;2.63;;;0.95;;
43837;SDS011;65998;46.256;7.534;2023-04-09T08:08:25;3.70;;;1.50;;
43837;SDS011;65998;46.256;7.534;2023-04-09T08:10:52;5.07;;;1.30;;
43837;SDS011;65998;46.256;7.534;2023-04-09T08:13:18;3.17;;;1.33;;
43837;SDS011;65998;46.256;7.534;2023-04-09T08:15:44;3.38;;;1.20;;
43837;SDS011;65998;46.256;7.534;2023-04-09T08:18:10;3.50;;;1.40;;
43837;SDS011;65998;46.256;7.534;2023-04-09T08:20:36;3.45;;;0.90;;
43837;SDS011;65998;46.256;7.534;2023-04-09T08:23:01;3.20;;;1.20;;
43837;SDS011;65998;46.256;7.534;2023-04-09T08:25:27;6.10;;;1.00;;
43837;SDS011;65998;46.256;7.534;2023-04-09T08:27:53;4.90;;;1.05;;
43837;SDS011;65998;46.256;7.534;2023-04-09T08:30:19;5.38;;;1.90;;
43837;SDS011;65998;46.256;7.534;2023-04-09T08:32:45;6.23;;;1.50;;
43837;SDS011;65998;46.256;7.534;2023-04-09T08:35:11;4.38;;;1.25;;
43837;SDS011;65998;46.256;7.534;2023-04-09T08:37:36;4.20;;;1.33;;
43837;SDS011;65998;46.256;7.534;2023-04-09T08:40:03;4.03;;;1.60;;
43837;SDS011;65998;46.256;7.534;2023-04-09T08:42:29;4.90;;;2.28;;
43837;SDS011;65998;46.256;7.534;2023-04-09T08:44:56;3.75;;;1.30;;
43837;SDS011;65998;46.256;7.534;2023-04-09T08:47:22;5.83;;;1.20;;
43837;SDS011;65998;46.256;7.534;2023-04-09T08:49:48;4.63;;;1.40;;
43837;SDS011;65998;46.256;7.534;2023-04-09T08:52:14;5.78;;;1.60;;
43837;SDS011;65998;46.256;7.534;2023-04-09T08:54:40;6.55;;;2.42;;
43837;SDS011;65998;46.256;7.534;2023-04-09T08:57:05;8.82;;;1.80;;
43837;SDS011;65998;46.256;7.534;2023-04-09T08:59:32;3.47;;;1.08;;
43837;SDS011;65998;46.256;7.534;2023-04-09T09:02:07;3.47;;;1.25;;
43837;SDS011;65998;46.256;7.534;2023-04-09T09:04:47;3.25;;;1.30;;
43837;SDS011;65998;46.256;7.534;2023-04-09T09:07:14;4.65;;;1.52;;
43837;SDS011;65998;46.256;7.534;2023-04-09T09:09:54;2.90;;;1.20;;
43837;SDS011;65998;46.256;7.534;2023-04-09T09:15:04;4.18;;;1.15;;
43837;SDS011;65998;46.256;7.534;2023-04-09T09:17:52;2.80;;;1.10;;
43837;SDS011;65998;46.256;7.534;2023-04-09T09:20:21;4.43;;;1.10;;
43837;SDS011;65998;46.256;7.534;2023-04-09T09:22:48;2.80;;;1.10;;
43837;SDS011;65998;46.256;7.534;2023-04-09T09:25:16;3.78;;;1.20;;
43837;SDS011;65998;46.256;7.534;2023-04-09T09:27:42;4.30;;;1.20;;
43837;SDS011;65998;46.256;7.534;2023-04-09T09:30:08;3.75;;;1.38;;
43837;SDS011;65998;46.256;7.534;2023-04-09T09:32:44;2.97;;;1.23;;
43837;SDS011;65998;46.256;7.534;2023-04-09T09:35:10;3.35;;;1.17;;
43837;SDS011;65998;46.256;7.534;2023-04-09T09:37:36;2.90;;;0.93;;
43837;SDS011;65998;46.256;7.534;2023-04-09T09:40:02;2.50;;;1.00;;
43837;SDS011;65998;46.256;7.534;2023-04-09T09:42:28;3.60;;;1.20;;
43837;SDS011;65998;46.256;7.534;2023-04-09T09:44:54;2.92;;;1.10;;
43837;SDS011;65998;46.256;7.534;2023-04-09T09:47:20;3.75;;;1.70;;
43837;SDS011;65998;46.256;7.534;2023-04-09T09:49:48;2.80;;;0.97;;
43837;SDS011;65998;46.256;7.534;2023-04-09T09:52:13;5.03;;;1.52;;
43837;SDS011;65998;46.256;7.534;2023-04-09T09:54:41;3.75;;;1.17;;
43837;SDS011;65998;46.256;7.534;2023-04-09T09:57:11;4.50;;;1.20;;
43837;SDS011;65998;46.256;7.534;2023-04-09T09:59:42;2.10;;;1.00;;
43837;SDS011;65998;46.256;7.534;2023-04-09T10:02:18;4.77;;;1.73;;
43837;SDS011;65998;46.256;7.534;2023-04-09T10:04:47;5.15;;;1.80;;
43837;SDS011;65998;46.256;7.534;2023-04-09T10:07:14;5.05;;;1.67;;
43837;SDS011;65998;46.256;7.534;2023-04-09T10:09:41;4.38;;;1.50;;
43837;SDS011;65998;46.256;7.534;2023-04-09T10:12:11;5.93;;;1.90;;
43837;SDS011;65998;46.256;7.534;2023-04-09T10:14:38;4.70;;;1.80;;
43837;SDS011;65998;46.256;7.534;2023-04-09T10:17:05;6.35;;;2.20;;
43837;SDS011;65998;46.256;7.534;2023-04-09T10:19:34;5.18;;;2.00;;
43837;SDS011;65998;46.256;7.534;2023-04-09T10:22:06;5.68;;;2.00;;
43837;SDS011;65998;46.256;7.534;2023-04-09T10:24:38;6.03;;;2.00;;
43837;SDS011;65998;46.256;7.534;2023-04-09T10:27:08;18.97;;;5.63;;
43837;SDS011;65998;46.256;7.534;2023-04-09T10:29:35;16.63;;;7.70;;
43837;SDS011;65998;46.256;7.534;2023-04-09T10:32:10;19.10;;;8.30;;
43837;SDS011;65998;46.256;7.534;2023-04-09T10:34:40;17.90;;;8.30;;
43837;SDS011;65998;46.256;7.534;2023-04-09T10:37:07;31.63;;;12.23;;
43837;SDS011;65998;46.256;7.534;2023-04-09T10:39:44;31.80;;;15.97;;
43837;SDS011;65998;46.256;7.534;2023-04-09T10:42:12;45.30;;;20.13;;
43837;SDS011;65998;46.256;7.534;2023-04-09T10:44:39;50.92;;;25.85;;
43837;SDS011;65998;46.256;7.534;2023-04-09T10:47:05;57.03;;;28.40;;
43837;SDS011;65998;46.256;7.534;2023-04-09T10:49:37;51.40;;;25.92;;
43837;SDS011;65998;46.256;7.534;2023-04-09T10:52:07;64.50;;;32.20;;
43837;SDS011;65998;46.256;7.534;2023-04-09T10:54:43;58.97;;;31.95;;
43837;SDS011;65998;46.256;7.534;2023-04-09T11:08:07;30.55;;;16.48;;
43837;SDS011;65998;46.256;7.534;2023-04-09T11:10:35;44.42;;;23.08;;
43837;SDS011;65998;46.256;7.534;2023-04-09T11:13:02;45.58;;;21.35;;
43837;SDS011;65998;46.256;7.534;2023-04-09T11:15:28;32.45;;;18.52;;
43837;SDS011;65998;46.256;7.534;2023-04-09T11:17:54;40.30;;;20.42;;
43837;SDS011;65998;46.256;7.534;2023-04-09T11:20:21;26.70;;;14.90;;
43837;SDS011;65998;46.256;7.534;2023-04-09T11:22:48;40.72;;;21.75;;
43837;SDS011;65998;46.256;7.534;2023-04-09T11:25:17;48.13;;;24.97;;
43837;SDS011;65998;46.256;7.534;2023-04-09T11:27:47;43.63;;;26.02;;
43837;SDS011;65998;46.256;7.534;2023-04-09T11:30:13;47.67;;;27.00;;
43837;SDS011;65998;46.256;7.534;2023-04-09T11:32:39;47.10;;;26.23;;
43837;SDS011;65998;46.256;7.534;2023-04-09T11:35:09;45.38;;;24.95;;
43837;SDS011;65998;46.256;7.534;2023-04-09T11:37:45;37.08;;;23.85;;
43837;SDS011;65998;46.256;7.534;2023-04-09T11:40:16;36.45;;;22.80;;
43837;SDS011;65998;46.256;7.534;2023-04-09T11:42:43;33.92;;;20.08;;
43837;SDS011;65998;46.256;7.534;2023-04-09T11:45:10;31.42;;;17.70;;
43837;SDS011;65998;46.256;7.534;2023-04-09T11:47:37;27.67;;;14.52;;
43837;SDS011;65998;46.256;7.534;2023-04-09T11:50:05;24.27;;;14.35;;
43837;SDS011;65998;46.256;7.534;2023-04-09T11:52:32;18.70;;;11.10;;
43837;SDS011;65998;46.256;7.534;2023-04-09T11:54:58;22.52;;;9.93;;
43837;SDS011;65998;46.256;7.534;2023-04-09T11:57:24;18.48;;;10.27;;
43837;SDS011;65998;46.256;7.534;2023-04-09T11:59:50;16.40;;;9.30;;
43837;SDS011;65998;46.256;7.534;2023-04-09T12:02:16;14.13;;;7.60;;
43837;SDS011;65998;46.256;7.534;2023-04-09T12:04:49;10.40;;;5.65;;
43837;SDS011;65998;46.256;7.534;2023-04-09T12:07:14;11.63;;;6.25;;
43837;SDS011;65998;46.256;7.534;2023-04-09T12:09:47;15.13;;;7.07;;
43837;SDS011;65998;46.256;7.534;2023-04-09T12:12:17;13.63;;;6.15;;
43837;SDS011;65998;46.256;7.534;2023-04-09T12:14:44;11.85;;;5.80;;
43837;SDS011;65998;46.256;7.534;2023-04-09T12:17:10;10.27;;;4.82;;
43837;SDS011;65998;46.256;7.534;2023-04-09T12:19:36;9.40;;;4.53;;
43837;SDS011;65998;46.256;7.534;2023-04-09T12:22:02;10.53;;;4.90;;
43837;SDS011;65998;46.256;7.534;2023-04-09T12:24:28;11.60;;;5.38;;
43837;SDS011;65998;46.256;7.534;2023-04-09T12:26:54;17.03;;;8.67;;
43837;SDS011;65998;46.256;7.534;2023-04-09T12:29:20;22.67;;;11.60;;
43837;SDS011;65998;46.256;7.534;2023-04-09T12:31:46;33.42;;;18.52;;
43837;SDS011;65998;46.256;7.534;2023-04-09T12:34:12;62.17;;;33.65;;
43837;SDS011;65998;46.256;7.534;2023-04-09T12:36:38;95.55;;;48.70;;
43837;SDS011;65998;46.256;7.534;2023-04-09T12:39:05;103.50;;;57.47;;
43837;SDS011;65998;46.256;7.534;2023-04-09T12:41:32;122.45;;;60.00;;
43837;SDS011;65998;46.256;7.534;2023-04-09T12:43:59;127.32;;;59.17;;
43837;SDS011;65998;46.256;7.534;2023-04-09T12:46:24;111.00;;;58.07;;
43837;SDS011;65998;46.256;7.534;2023-04-09T12:48:50;102.88;;;50.40;;
43837;SDS011;65998;46.256;7.534;2023-04-09T12:51:16;89.20;;;43.40;;
43837;SDS011;65998;46.256;7.534;2023-04-09T12:53:42;82.95;;;39.13;;
43837;SDS011;65998;46.256;7.534;2023-04-09T12:56:08;72.45;;;34.25;;
43837;SDS011;65998;46.256;7.534;2023-04-09T12:58:34;52.38;;;25.10;;
43837;SDS011;65998;46.256;7.534;2023-04-09T13:00:59;48.95;;;21.90;;
43837;SDS011;65998;46.256;7.534;2023-04-09T13:03:26;40.92;;;20.17;;
43837;SDS011;65998;46.256;7.534;2023-04-09T13:05:51;41.73;;;18.97;;
43837;SDS011;65998;46.256;7.534;2023-04-09T13:08:17;33.00;;;14.38;;
43837;SDS011;65998;46.256;7.534;2023-04-09T13:10:43;30.50;;;12.10;;
43837;SDS011;65998;46.256;7.534;2023-04-09T13:13:09;22.60;;;10.40;;
43837;SDS011;65998;46.256;7.534;2023-04-09T13:15:35;16.80;;;8.45;;
43837;SDS011;65998;46.256;7.534;2023-04-09T13:18:02;16.40;;;7.55;;
43837;SDS011;65998;46.256;7.534;2023-04-09T13:20:28;14.23;;;6.13;;
43837;SDS011;65998;46.256;7.534;2023-04-09T13:22:54;16.65;;;6.03;;
43837;SDS011;65998;46.256;7.534;2023-04-09T13:25:20;14.35;;;5.00;;
43837;SDS011;65998;46.256;7.534;2023-04-09T13:27:46;13.40;;;3.93;;
43837;SDS011;65998;46.256;7.534;2023-04-09T13:30:12;11.63;;;3.38;;
43837;SDS011;65998;46.256;7.534;2023-04-09T13:32:40;11.45;;;3.03;;
43837;SDS011;65998;46.256;7.534;2023-04-09T13:35:06;7.53;;;2.90;;
43837;SDS011;65998;46.256;7.534;2023-04-09T13:37:32;6.13;;;2.70;;
43837;SDS011;65998;46.256;7.534;2023-04-09T13:39:58;6.93;;;2.65;;
43837;SDS011;65998;46.256;7.534;2023-04-09T13:42:24;6.68;;;3.05;;
43837;SDS011;65998;46.256;7.534;2023-04-09T13:44:50;7.38;;;3.20;;
43837;SDS011;65998;46.256;7.534;2023-04-09T13:47:16;5.68;;;2.70;;
43837;SDS011;65998;46.256;7.534;2023-04-09T13:49:42;6.47;;;2.45;;
43837;SDS011;65998;46.256;7.534;2023-04-09T13:52:08;5.50;;;2.30;;
43837;SDS011;65998;46.256;7.534;2023-04-09T13:54:35;5.72;;;2.53;;
43837;SDS011;65998;46.256;7.534;2023-04-09T13:57:01;4.60;;;2.07;;
43837;SDS011;65998;46.256;7.534;2023-04-09T13:59:27;5.85;;;2.20;;
43837;SDS011;65998;46.256;7.534;2023-04-09T14:01:53;5.80;;;2.40;;
43837;SDS011;65998;46.256;7.534;2023-04-09T14:04:19;7.50;;;2.40;;
43837;SDS011;65998;46.256;7.534;2023-04-09T14:06:46;6.70;;;2.70;;
43837;SDS011;65998;46.256;7.534;2023-04-09T14:09:12;6.90;;;3.08;;
43837;SDS011;65998;46.256;7.534;2023-04-09T14:11:41;8.70;;;3.30;;
43837;SDS011;65998;46.256;7.534;2023-04-09T14:14:07;9.65;;;3.72;;
43837;SDS011;65998;46.256;7.534;2023-04-09T14:16:33;8.95;;;3.95;;
43837;SDS011;65998;46.256;7.534;2023-04-09T14:18:58;9.07;;;4.80;;
43837;SDS011;65998;46.256;7.534;2023-04-09T14:21:24;10.68;;;4.80;;
43837;SDS011;65998;46.256;7.534;2023-04-09T14:23:50;8.87;;;4.60;;
43837;SDS011;65998;46.256;7.534;2023-04-09T14:26:16;10.18;;;5.47;;
43837;SDS011;65998;46.256;7.534;2023-04-09T14:28:42;12.38;;;5.90;;
43837;SDS011;65998;46.256;7.534;2023-04-09T14:31:08;9.07;;;5.13;;
43837;SDS011;65998;46.256;7.534;2023-04-09T14:33:34;10.65;;;4.78;;
43837;SDS011;65998;46.256;7.534;2023-04-09T14:36:00;10.20;;;4.70;;
43837;SDS011;65998;46.256;7.534;2023-04-09T14:38:26;5.75;;;3.40;;
43837;SDS011;65998;46.256;7.534;2023-04-09T14:40:52;7.28;;;3.35;;
43837;SDS011;65998;46.256;7.534;2023-04-09T14:43:17;5.77;;;3.07;;
43837;SDS011;65998;46.256;7.534;2023-04-09T14:45:43;5.75;;;2.72;;
43837;SDS011;65998;46.256;7.534;2023-04-09T14:48:11;6.45;;;2.50;;
43837;SDS011;65998;46.256;7.534;2023-04-09T14:50:39;5.30;;;2.10;;
43837;SDS011;65998;46.256;7.534;2023-04-09T14:53:05;5.27;;;2.10;;
43837;SDS011;65998;46.256;7.534;2023-04-09T14:55:31;6.20;;;2.38;;
43837;SDS011;65998;46.256;7.534;2023-04-09T14:57:57;5.95;;;2.40;;
43837;SDS011;65998;46.256;7.534;2023-04-09T15:00:24;7.22;;;2.72;;